AirNav   Everest Fuels
 
 784 users online  

MS81 Forrest General Hospital Heliport
Hattiesburg, Mississippi, USA

GOING TO HATTIESBURG?


FAA INFORMATION EFFECTIVE 10 SEPTEMBER 2020

Location

FAA Identifier: MS81
Lat/Long: 31-19-10.9100N 089-19-50.6500W
31-19.181833N 089-19.844167W
31.3196972,-89.3307361
(estimated)
Elevation: 215 ft. / 66 m (estimated)
Variation: 02W (2020)
From city: 2 miles SW of HATTIESBURG, MS
Time zone: UTC -5 (UTC -6 during Standard Time)
Zip code: 39401

Heliport Operations

Heliport use: Private use, MEDICAL USE.
Activation date: 02/1993
Control tower: no
ARTCC: HOUSTON CENTER
FSS: GREENWOOD FLIGHT SERVICE STATION
Attendance: CONTINUOUS
Wind indicator: yes
Segmented circle: no
Lights: FOR PERIMETER LGTS CALL 601-264-4210.

Heliport Communications

WX ASOS at HBG (5 nm SE): 135.425 (601-544-2185)
WX AWOS-3PT at PIB (9 nm N): 128.325 (601-584-6701)

Nearby radio navigation aids

VOR radial/distance  VOR name  Freq  Var
LBYr172/5.9EATON VORTAC110.6005E

 
NDB name  Hdg/Dist  Freq  Var  ID
BOGALUSA046/37.935300WGVB --. ...- -...

Heliport Services

Runway Information

Helipad H1

Dimensions: 50 x 50 ft. / 15 x 15 m
Surface: concrete
Runway edge lights: PERI
PERIMETER LGTS.
Latitude: 31-19.133833N
Longitude: 089-19.737833W
Elevation: 215.0 ft.
Traffic pattern: leftleft

Helipad H2

Dimensions: 40 x 40 ft. / 12 x 12 m
Surface: concrete
Runway edge lights: PERI
Latitude: 31-19.181833N
Longitude: 089-19.844167W
Elevation: 215.0 ft.
Traffic pattern: leftleft

Heliport Ownership and Management from official FAA records

Ownership: Privately-owned
Owner: FORREST GENERAL HOSPITAL
P.O. BOX 16389
HATTIESBURG, MS 39404
Phone 601-288-7000
OR 601-264-3405
Manager: JOE GIBSON
6051 US HIGHWAY 49
HATTIESBURG, MS 39401
Phone 601-288-2700
WAYNE LANDERS 601-288-1005 WLANDERS@FORRESTGENERAL.COM

Additional Remarks

FOR CD CTC HOUSTON ARTCC AT 281-230-5622.

Instrument Procedures

There are no published instrument procedures at MS81.

Some nearby airports with instrument procedures:

KHBG - Hattiesburg Bobby L Chain Municipal Airport (5 nm SE)
KPIB - Hattiesburg-Laurel Regional Airport (9 nm N)
KLUL - Hesler-Noble Field Airport (23 nm N)
0R0 - Columbia-Marion County Airport (25 nm W)
M13 - Poplarville-Pearl River County Airport (33 nm S)
 
Loc | Ops | Rwys | IFR | FBO | Links
Com | Nav | Svcs | Stats | Notes

Continental Services
AirBoss

 
Area around MS81 (Forrest General Hospital Heliport)
 
Road maps at: MapQuest Bing Google
 
Aerial photo
No photo
 
Sectional chart

 
Airport distance calculator
Flying to Forrest General Hospital Heliport? Find the distance to fly.

From to MS81

Sunrise and sunset
Times for 30-Sep-2020
 Local
(UTC-5)
 Zulu
(UTC)
Morning civil twilight06:2811:28
Sunrise06:5211:52
Sunset18:4223:42
Evening civil twilight19:0600:06

Current date and time
Zulu (UTC)  01-Oct-2020 03:54:24
Local (UTC-5)  30-Sep-2020 22:54:24
 
METAR
KHBG 
5nm SE 
010253Z AUTO 00000KT 10SM CLR 16/13 A3009 RMK AO2 SLP186 T01560128 51011
KLUL 
9nm N 
010335Z AUTO 00000KT 10SM CLR 15/14 A3008 RMK A02 T01500138
KPIB 
9nm N 
010256Z AUTO 00000KT 10SM CLR 14/13 A3009 RMK AO2 SLP188 T01440133 51008
TAF
KHBG 
5nm SE 
301720Z 3018/0118 27004KT P6SM SKC FM011200 VRB03KT P6SM SKC
KPIB 
9nm N 
301720Z 3018/0118 27004KT P6SM SKC FM011200 VRB03KT P6SM SKC
NOTAMs
Click for the latest NOTAMs
NOTAMs are issued by the DoD/FAA and will open in a separate window not controlled by AirNav.

 

 
 

Would you like to see your business listed on this page?

 If your business provides an interesting product or service to pilots, flight crews, aircraft, or users of the Forrest General Hospital Heliport, you should consider listing it here.  To start the listing process, click on the button below
 
Add a business
 

Other Pages about Forrest General Hospital Heliport

Update a link
 
Copyright © AirNav, LLC. All rights reserved. Privacy Policy  Contact